Clutier, Iowa
Current Conditions -  °F | °C
As of 6:35 PM on Monday 20 Oct 2014 (Local Time) from KVTI Reporting Station
Clear Clear  
Wind Chill: 16°   Ceiling: Unl
Heat Index: 16°   Visibility: 10mi
Dew Point:   Wind: 5mph
Humidity: 44%   Direction: 320°NW
Pressure: 29.98"   Gusts: NA
Location:  42.08°N, 92.4°W
Report Text: KVTI 202335Z AUTO 32004KT 10SM CLR 17/04 A2998 RMK AO2 T01650042
Loading
Personal Weather Stations






























Interactive Weather Map
Tropical Storm Tracking
New forecast layout! Learn more

10-Day Weather Forecast

Advertisements
Track Severe Weather on mobile